sensor_id;sensor_type;location;lat;lon;timestamp;temperature;humidity
14485;DHT22;7328;50.812;4.422;2022-11-30T00:00:36;-8.40;99.90
14485;DHT22;7328;50.812;4.422;2022-11-30T00:03:02;-7.70;99.90
14485;DHT22;7328;50.812;4.422;2022-11-30T00:05:28;-9.50;99.90
14485;DHT22;7328;50.812;4.422;2022-11-30T00:07:53;-10.40;99.90
14485;DHT22;7328;50.812;4.422;2022-11-30T00:10:20;-9.00;99.90
14485;DHT22;7328;50.812;4.422;2022-11-30T00:12:47;-8.70;99.90
14485;DHT22;7328;50.812;4.422;2022-11-30T00:15:13;-8.10;99.90
14485;DHT22;7328;50.812;4.422;2022-11-30T00:17:44;-8.60;99.90
14485;DHT22;7328;50.812;4.422;2022-11-30T00:20:11;-8.40;99.90
14485;DHT22;7328;50.812;4.422;2022-11-30T00:22:37;-8.90;99.90
14485;DHT22;7328;50.812;4.422;2022-11-30T00:25:03;-9.10;99.90
14485;DHT22;7328;50.812;4.422;2022-11-30T00:27:30;-8.70;99.90
14485;DHT22;7328;50.812;4.422;2022-11-30T00:29:57;-9.60;99.90
14485;DHT22;7328;50.812;4.422;2022-11-30T00:32:24;-9.10;99.90
14485;DHT22;7328;50.812;4.422;2022-11-30T00:34:50;-8.20;99.90
14485;DHT22;7328;50.812;4.422;2022-11-30T00:37:16;-8.10;99.90
14485;DHT22;7328;50.812;4.422;2022-11-30T00:39:41;-8.00;99.90
14485;DHT22;7328;50.812;4.422;2022-11-30T00:42:07;-8.20;99.90
14485;DHT22;7328;50.812;4.422;2022-11-30T00:44:33;-7.60;99.90
14485;DHT22;7328;50.812;4.422;2022-11-30T00:46:59;-7.00;99.90
14485;DHT22;7328;50.812;4.422;2022-11-30T00:49:24;-7.90;99.90
14485;DHT22;7328;50.812;4.422;2022-11-30T00:51:50;-7.70;99.90
14485;DHT22;7328;50.812;4.422;2022-11-30T00:54:16;-6.60;99.90
14485;DHT22;7328;50.812;4.422;2022-11-30T00:56:42;-7.80;99.90
14485;DHT22;7328;50.812;4.422;2022-11-30T00:59:07;-7.50;99.90
14485;DHT22;7328;50.812;4.422;2022-11-30T01:01:33;-7.20;99.90
14485;DHT22;7328;50.812;4.422;2022-11-30T01:04:00;-6.20;99.90
14485;DHT22;7328;50.812;4.422;2022-11-30T01:06:26;-6.90;99.90
14485;DHT22;7328;50.812;4.422;2022-11-30T01:08:52;-5.10;99.90
14485;DHT22;7328;50.812;4.422;2022-11-30T01:11:23;-6.90;99.90
14485;DHT22;7328;50.812;4.422;2022-11-30T01:13:50;-8.10;99.90
14485;DHT22;7328;50.812;4.422;2022-11-30T01:16:18;-8.50;99.90
14485;DHT22;7328;50.812;4.422;2022-11-30T01:18:45;-8.40;99.90
14485;DHT22;7328;50.812;4.422;2022-11-30T01:21:13;-8.70;99.90
14485;DHT22;7328;50.812;4.422;2022-11-30T01:23:40;-7.20;99.90
14485;DHT22;7328;50.812;4.422;2022-11-30T01:26:06;-7.20;99.90
14485;DHT22;7328;50.812;4.422;2022-11-30T01:28:32;-6.80;99.90
14485;DHT22;7328;50.812;4.422;2022-11-30T01:31:00;-8.40;99.90
14485;DHT22;7328;50.812;4.422;2022-11-30T01:33:26;-9.10;99.90
14485;DHT22;7328;50.812;4.422;2022-11-30T01:36:04;-9.60;99.90
14485;DHT22;7328;50.812;4.422;2022-11-30T01:38:33;-9.70;99.90
14485;DHT22;7328;50.812;4.422;2022-11-30T01:40:59;-8.70;99.90
14485;DHT22;7328;50.812;4.422;2022-11-30T01:43:46;-8.80;99.90
14485;DHT22;7328;50.812;4.422;2022-11-30T01:54:09;-8.80;99.90
14485;DHT22;7328;50.812;4.422;2022-11-30T01:56:40;-9.10;99.90
14485;DHT22;7328;50.812;4.422;2022-11-30T01:59:08;-7.90;99.90
14485;DHT22;7328;50.812;4.422;2022-11-30T02:01:34;-8.30;99.90
14485;DHT22;7328;50.812;4.422;2022-11-30T02:04:08;-8.60;99.90
14485;DHT22;7328;50.812;4.422;2022-11-30T02:06:36;-8.30;99.90
14485;DHT22;7328;50.812;4.422;2022-11-30T02:09:02;-8.10;99.90
14485;DHT22;7328;50.812;4.422;2022-11-30T02:11:28;-7.40;99.90
14485;DHT22;7328;50.812;4.422;2022-11-30T02:26:23;-7.40;99.90
14485;DHT22;7328;50.812;4.422;2022-11-30T02:29:19;-8.60;99.90
14485;DHT22;7328;50.812;4.422;2022-11-30T02:32:09;-9.40;99.90
14485;DHT22;7328;50.812;4.422;2022-11-30T02:34:38;-8.40;99.90
14485;DHT22;7328;50.812;4.422;2022-11-30T02:37:06;-8.30;99.90
14485;DHT22;7328;50.812;4.422;2022-11-30T02:39:33;-7.60;99.90
14485;DHT22;7328;50.812;4.422;2022-11-30T02:41:59;-5.70;99.90
14485;DHT22;7328;50.812;4.422;2022-11-30T02:44:25;-8.90;99.90
14485;DHT22;7328;50.812;4.422;2022-11-30T02:49:58;-9.20;99.90
14485;DHT22;7328;50.812;4.422;2022-11-30T02:52:26;-8.40;99.90
14485;DHT22;7328;50.812;4.422;2022-11-30T02:55:16;-8.80;99.90
14485;DHT22;7328;50.812;4.422;2022-11-30T02:57:42;-8.20;99.90
14485;DHT22;7328;50.812;4.422;2022-11-30T03:00:09;-7.80;99.90
14485;DHT22;7328;50.812;4.422;2022-11-30T03:02:36;-8.20;99.90
14485;DHT22;7328;50.812;4.422;2022-11-30T03:05:02;-8.90;99.90
14485;DHT22;7328;50.812;4.422;2022-11-30T03:07:28;-9.30;99.90
14485;DHT22;7328;50.812;4.422;2022-11-30T03:09:54;-9.00;99.90
14485;DHT22;7328;50.812;4.422;2022-11-30T03:12:20;-8.10;99.90
14485;DHT22;7328;50.812;4.422;2022-11-30T03:14:46;-8.60;99.90
14485;DHT22;7328;50.812;4.422;2022-11-30T03:17:12;-9.20;99.90
14485;DHT22;7328;50.812;4.422;2022-11-30T03:19:37;-8.80;99.90
14485;DHT22;7328;50.812;4.422;2022-11-30T03:22:03;-8.50;99.90
14485;DHT22;7328;50.812;4.422;2022-11-30T03:24:29;-9.50;99.90
14485;DHT22;7328;50.812;4.422;2022-11-30T03:26:55;-8.50;99.90
14485;DHT22;7328;50.812;4.422;2022-11-30T03:29:20;-7.90;99.90
14485;DHT22;7328;50.812;4.422;2022-11-30T03:31:46;-7.20;99.90
14485;DHT22;7328;50.812;4.422;2022-11-30T03:34:12;-7.50;99.90
14485;DHT22;7328;50.812;4.422;2022-11-30T03:36:37;-8.60;99.90
14485;DHT22;7328;50.812;4.422;2022-11-30T03:39:03;-9.40;99.90
14485;DHT22;7328;50.812;4.422;2022-11-30T03:41:29;-9.80;99.90
14485;DHT22;7328;50.812;4.422;2022-11-30T03:43:55;-8.90;99.90
14485;DHT22;7328;50.812;4.422;2022-11-30T03:46:21;-8.50;99.90
14485;DHT22;7328;50.812;4.422;2022-11-30T03:48:47;-8.20;99.90
14485;DHT22;7328;50.812;4.422;2022-11-30T03:51:13;-7.70;99.90
14485;DHT22;7328;50.812;4.422;2022-11-30T03:53:39;-7.40;99.90
14485;DHT22;7328;50.812;4.422;2022-11-30T03:56:07;-7.10;99.90
14485;DHT22;7328;50.812;4.422;2022-11-30T03:58:34;-7.30;99.90
14485;DHT22;7328;50.812;4.422;2022-11-30T04:01:10;-9.60;99.90
14485;DHT22;7328;50.812;4.422;2022-11-30T04:03:36;-8.80;99.90
14485;DHT22;7328;50.812;4.422;2022-11-30T04:06:04;-8.70;99.90
14485;DHT22;7328;50.812;4.422;2022-11-30T04:08:31;-8.80;99.90
14485;DHT22;7328;50.812;4.422;2022-11-30T04:10:58;-9.40;99.90
14485;DHT22;7328;50.812;4.422;2022-11-30T04:13:25;-9.10;99.90
14485;DHT22;7328;50.812;4.422;2022-11-30T04:15:52;-8.50;99.90
14485;DHT22;7328;50.812;4.422;2022-11-30T04:18:19;-7.80;99.90
14485;DHT22;7328;50.812;4.422;2022-11-30T04:20:46;-7.50;99.90
14485;DHT22;7328;50.812;4.422;2022-11-30T04:23:12;-6.50;99.90
14485;DHT22;7328;50.812;4.422;2022-11-30T04:25:39;-8.20;99.90
14485;DHT22;7328;50.812;4.422;2022-11-30T04:28:05;-8.70;99.90
14485;DHT22;7328;50.812;4.422;2022-11-30T04:30:32;-8.00;99.90
14485;DHT22;7328;50.812;4.422;2022-11-30T04:32:58;-8.80;99.90
14485;DHT22;7328;50.812;4.422;2022-11-30T04:35:24;-8.40;99.90
14485;DHT22;7328;50.812;4.422;2022-11-30T04:37:50;-7.90;99.90
14485;DHT22;7328;50.812;4.422;2022-11-30T04:40:16;-8.70;99.90
14485;DHT22;7328;50.812;4.422;2022-11-30T04:42:41;-9.30;99.90
14485;DHT22;7328;50.812;4.422;2022-11-30T04:45:08;-9.10;99.90
14485;DHT22;7328;50.812;4.422;2022-11-30T04:47:34;-9.20;99.90
14485;DHT22;7328;50.812;4.422;2022-11-30T04:50:00;-8.30;99.90
14485;DHT22;7328;50.812;4.422;2022-11-30T04:52:26;-7.50;99.90
14485;DHT22;7328;50.812;4.422;2022-11-30T04:54:51;-7.00;99.90
14485;DHT22;7328;50.812;4.422;2022-11-30T04:57:17;-8.20;99.90
14485;DHT22;7328;50.812;4.422;2022-11-30T04:59:43;-7.90;99.90
14485;DHT22;7328;50.812;4.422;2022-11-30T05:02:09;-8.20;99.90
14485;DHT22;7328;50.812;4.422;2022-11-30T05:04:35;-9.40;99.90
14485;DHT22;7328;50.812;4.422;2022-11-30T05:07:01;-9.80;99.90
14485;DHT22;7328;50.812;4.422;2022-11-30T05:09:26;-9.10;99.90
14485;DHT22;7328;50.812;4.422;2022-11-30T05:11:52;-8.10;99.90
14485;DHT22;7328;50.812;4.422;2022-11-30T05:14:18;-8.80;99.90
14485;DHT22;7328;50.812;4.422;2022-11-30T05:16:46;-9.00;99.90
14485;DHT22;7328;50.812;4.422;2022-11-30T05:19:12;-6.90;99.90
14485;DHT22;7328;50.812;4.422;2022-11-30T05:21:39;-8.60;99.90
14485;DHT22;7328;50.812;4.422;2022-11-30T05:24:06;-9.10;99.90
14485;DHT22;7328;50.812;4.422;2022-11-30T05:26:31;-9.50;99.90
14485;DHT22;7328;50.812;4.422;2022-11-30T05:28:57;-9.70;99.90
14485;DHT22;7328;50.812;4.422;2022-11-30T05:31:23;-10.00;99.90
14485;DHT22;7328;50.812;4.422;2022-11-30T05:33:52;-9.50;99.90
14485;DHT22;7328;50.812;4.422;2022-11-30T05:36:19;-9.40;99.90
14485;DHT22;7328;50.812;4.422;2022-11-30T05:38:45;-7.40;99.90
14485;DHT22;7328;50.812;4.422;2022-11-30T05:41:11;-9.60;99.90
14485;DHT22;7328;50.812;4.422;2022-11-30T05:43:37;-9.30;99.90
14485;DHT22;7328;50.812;4.422;2022-11-30T05:46:05;-9.50;99.90
14485;DHT22;7328;50.812;4.422;2022-11-30T05:48:31;-9.50;99.90
14485;DHT22;7328;50.812;4.422;2022-11-30T05:51:11;-9.90;99.90
14485;DHT22;7328;50.812;4.422;2022-11-30T05:53:38;-10.20;99.90
14485;DHT22;7328;50.812;4.422;2022-11-30T05:56:10;-8.80;99.90
14485;DHT22;7328;50.812;4.422;2022-11-30T05:58:36;-9.80;99.90
14485;DHT22;7328;50.812;4.422;2022-11-30T06:01:02;-9.30;99.90
14485;DHT22;7328;50.812;4.422;2022-11-30T06:03:28;-8.90;99.90
14485;DHT22;7328;50.812;4.422;2022-11-30T06:05:54;-9.00;99.90
14485;DHT22;7328;50.812;4.422;2022-11-30T06:08:21;-9.00;99.90
14485;DHT22;7328;50.812;4.422;2022-11-30T06:10:47;-9.90;99.90
14485;DHT22;7328;50.812;4.422;2022-11-30T06:13:13;-8.40;99.90
14485;DHT22;7328;50.812;4.422;2022-11-30T06:15:39;-9.20;99.90
14485;DHT22;7328;50.812;4.422;2022-11-30T06:18:05;-9.10;99.90
14485;DHT22;7328;50.812;4.422;2022-11-30T06:20:31;-9.20;99.90
14485;DHT22;7328;50.812;4.422;2022-11-30T06:22:57;-8.80;99.90
14485;DHT22;7328;50.812;4.422;2022-11-30T06:25:24;-8.70;99.90
14485;DHT22;7328;50.812;4.422;2022-11-30T06:27:50;-9.10;99.90
14485;DHT22;7328;50.812;4.422;2022-11-30T06:30:16;-9.50;99.90
14485;DHT22;7328;50.812;4.422;2022-11-30T06:32:47;-9.60;99.90
14485;DHT22;7328;50.812;4.422;2022-11-30T06:35:14;-9.20;99.90
14485;DHT22;7328;50.812;4.422;2022-11-30T06:37:40;-9.80;99.90
14485;DHT22;7328;50.812;4.422;2022-11-30T06:40:07;-9.60;99.90
14485;DHT22;7328;50.812;4.422;2022-11-30T06:42:34;-9.60;99.90
14485;DHT22;7328;50.812;4.422;2022-11-30T06:45:00;-9.30;99.90
14485;DHT22;7328;50.812;4.422;2022-11-30T06:47:26;-9.20;99.90
14485;DHT22;7328;50.812;4.422;2022-11-30T06:49:52;-9.00;99.90
14485;DHT22;7328;50.812;4.422;2022-11-30T06:52:18;-8.40;99.90
14485;DHT22;7328;50.812;4.422;2022-11-30T06:54:44;-8.70;99.90
14485;DHT22;7328;50.812;4.422;2022-11-30T06:57:10;-9.10;99.90
14485;DHT22;7328;50.812;4.422;2022-11-30T06:59:36;-9.20;99.90
14485;DHT22;7328;50.812;4.422;2022-11-30T07:02:12;-9.20;99.90
14485;DHT22;7328;50.812;4.422;2022-11-30T07:04:38;-8.70;99.90
14485;DHT22;7328;50.812;4.422;2022-11-30T07:07:05;-8.70;99.90
14485;DHT22;7328;50.812;4.422;2022-11-30T07:09:35;-9.40;99.90
14485;DHT22;7328;50.812;4.422;2022-11-30T07:12:02;-9.30;99.90
14485;DHT22;7328;50.812;4.422;2022-11-30T07:14:27;-9.00;99.90
14485;DHT22;7328;50.812;4.422;2022-11-30T07:16:55;-9.10;99.90
14485;DHT22;7328;50.812;4.422;2022-11-30T07:19:20;-8.90;99.90
14485;DHT22;7328;50.812;4.422;2022-11-30T07:21:46;-8.50;99.90
14485;DHT22;7328;50.812;4.422;2022-11-30T07:24:12;-8.10;99.90
14485;DHT22;7328;50.812;4.422;2022-11-30T07:27:01;-8.00;99.90
14485;DHT22;7328;50.812;4.422;2022-11-30T07:29:27;-8.10;99.90
14485;DHT22;7328;50.812;4.422;2022-11-30T07:31:53;-8.30;99.90
14485;DHT22;7328;50.812;4.422;2022-11-30T07:34:20;-8.20;99.90
14485;DHT22;7328;50.812;4.422;2022-11-30T07:36:46;-8.20;99.90
14485;DHT22;7328;50.812;4.422;2022-11-30T07:39:13;-8.10;99.90
14485;DHT22;7328;50.812;4.422;2022-11-30T07:41:40;-8.00;99.90
14485;DHT22;7328;50.812;4.422;2022-11-30T07:44:07;-8.40;99.90
14485;DHT22;7328;50.812;4.422;2022-11-30T07:46:33;-8.60;99.90
14485;DHT22;7328;50.812;4.422;2022-11-30T07:49:04;-9.40;99.90
14485;DHT22;7328;50.812;4.422;2022-11-30T07:51:31;-9.00;99.90
14485;DHT22;7328;50.812;4.422;2022-11-30T07:53:57;-9.20;99.90
14485;DHT22;7328;50.812;4.422;2022-11-30T07:56:24;-8.30;99.90
14485;DHT22;7328;50.812;4.422;2022-11-30T07:58:57;-7.80;99.90
14485;DHT22;7328;50.812;4.422;2022-11-30T08:01:26;-8.30;99.90
14485;DHT22;7328;50.812;4.422;2022-11-30T08:03:52;-8.90;99.90
14485;DHT22;7328;50.812;4.422;2022-11-30T08:06:27;-7.20;99.90
14485;DHT22;7328;50.812;4.422;2022-11-30T08:08:56;-8.00;99.90
14485;DHT22;7328;50.812;4.422;2022-11-30T08:11:26;-8.20;99.90
14485;DHT22;7328;50.812;4.422;2022-11-30T08:13:53;-9.60;99.90
14485;DHT22;7328;50.812;4.422;2022-11-30T08:16:22;-9.80;99.90
14485;DHT22;7328;50.812;4.422;2022-11-30T08:18:48;-9.50;99.90
14485;DHT22;7328;50.812;4.422;2022-11-30T08:21:16;-9.90;99.90
14485;DHT22;7328;50.812;4.422;2022-11-30T08:23:47;-9.70;99.90
14485;DHT22;7328;50.812;4.422;2022-11-30T08:26:16;-9.30;99.90
14485;DHT22;7328;50.812;4.422;2022-11-30T08:28:43;-9.40;99.90
14485;DHT22;7328;50.812;4.422;2022-11-30T08:31:19;-9.30;99.90
14485;DHT22;7328;50.812;4.422;2022-11-30T08:33:45;-9.50;99.90
14485;DHT22;7328;50.812;4.422;2022-11-30T08:36:14;-9.80;99.90
14485;DHT22;7328;50.812;4.422;2022-11-30T08:38:41;-10.10;99.90
14485;DHT22;7328;50.812;4.422;2022-11-30T08:41:10;-9.70;99.90
14485;DHT22;7328;50.812;4.422;2022-11-30T08:43:36;-9.80;99.90
14485;DHT22;7328;50.812;4.422;2022-11-30T08:46:03;-10.60;99.90
14485;DHT22;7328;50.812;4.422;2022-11-30T08:48:29;-11.00;99.90
14485;DHT22;7328;50.812;4.422;2022-11-30T08:51:02;-11.30;99.90
14485;DHT22;7328;50.812;4.422;2022-11-30T08:53:28;-10.60;99.90
14485;DHT22;7328;50.812;4.422;2022-11-30T08:56:06;-10.50;99.90
14485;DHT22;7328;50.812;4.422;2022-11-30T08:58:35;-10.60;99.90
14485;DHT22;7328;50.812;4.422;2022-11-30T09:01:15;-9.90;99.90
14485;DHT22;7328;50.812;4.422;2022-11-30T09:03:41;-9.80;99.90
14485;DHT22;7328;50.812;4.422;2022-11-30T09:06:10;-10.10;99.90
14485;DHT22;7328;50.812;4.422;2022-11-30T09:08:38;-10.00;99.90
14485;DHT22;7328;50.812;4.422;2022-11-30T09:11:19;-9.70;99.90
14485;DHT22;7328;50.812;4.422;2022-11-30T09:13:46;-10.40;99.90
14485;DHT22;7328;50.812;4.422;2022-11-30T09:16:13;-11.50;99.90
14485;DHT22;7328;50.812;4.422;2022-11-30T09:18:40;-9.70;99.90
14485;DHT22;7328;50.812;4.422;2022-11-30T09:21:11;-11.10;99.90
14485;DHT22;7328;50.812;4.422;2022-11-30T09:23:38;-10.20;99.90
14485;DHT22;7328;50.812;4.422;2022-11-30T09:26:09;-10.30;99.90
14485;DHT22;7328;50.812;4.422;2022-11-30T09:28:36;-10.00;99.90
14485;DHT22;7328;50.812;4.422;2022-11-30T09:33:29;-10.30;99.90
14485;DHT22;7328;50.812;4.422;2022-11-30T09:35:56;-10.50;99.90
14485;DHT22;7328;50.812;4.422;2022-11-30T09:38:22;-10.20;99.90
14485;DHT22;7328;50.812;4.422;2022-11-30T09:40:56;-10.10;99.90
14485;DHT22;7328;50.812;4.422;2022-11-30T09:46:10;-9.70;99.90
14485;DHT22;7328;50.812;4.422;2022-11-30T09:51:19;-10.30;99.90
14485;DHT22;7328;50.812;4.422;2022-11-30T09:53:58;-11.00;99.90
14485;DHT22;7328;50.812;4.422;2022-11-30T09:56:28;-10.30;99.90
14485;DHT22;7328;50.812;4.422;2022-11-30T09:59:01;-11.00;99.90
14485;DHT22;7328;50.812;4.422;2022-11-30T10:01:29;-9.70;99.90
14485;DHT22;7328;50.812;4.422;2022-11-30T10:03:55;-10.90;99.90
14485;DHT22;7328;50.812;4.422;2022-11-30T10:12:27;-10.90;99.90
14485;DHT22;7328;50.812;4.422;2022-11-30T10:17:55;-12.30;99.90
14485;DHT22;7328;50.812;4.422;2022-11-30T10:20:32;-10.70;99.90
14485;DHT22;7328;50.812;4.422;2022-11-30T10:26:08;-11.20;99.90
14485;DHT22;7328;50.812;4.422;2022-11-30T10:31:06;-12.30;99.90
14485;DHT22;7328;50.812;4.422;2022-11-30T10:33:39;-10.10;99.90
14485;DHT22;7328;50.812;4.422;2022-11-30T10:36:14;-11.10;99.90
14485;DHT22;7328;50.812;4.422;2022-11-30T10:38:48;-11.60;99.90
14485;DHT22;7328;50.812;4.422;2022-11-30T10:43:56;-10.90;99.90
14485;DHT22;7328;50.812;4.422;2022-11-30T10:46:46;-8.90;99.90
14485;DHT22;7328;50.812;4.422;2022-11-30T10:49:17;-9.00;99.90
14485;DHT22;7328;50.812;4.422;2022-11-30T10:51:45;-7.10;99.90
14485;DHT22;7328;50.812;4.422;2022-11-30T10:54:17;-11.20;99.90
14485;DHT22;7328;50.812;4.422;2022-11-30T10:56:44;-10.50;99.90
14485;DHT22;7328;50.812;4.422;2022-11-30T10:59:13;-10.60;99.90
14485;DHT22;7328;50.812;4.422;2022-11-30T11:01:41;-10.80;99.90
14485;DHT22;7328;50.812;4.422;2022-11-30T11:04:19;-10.50;99.90
14485;DHT22;7328;50.812;4.422;2022-11-30T11:07:06;-11.00;99.90
14485;DHT22;7328;50.812;4.422;2022-11-30T11:09:33;-9.80;99.90
14485;DHT22;7328;50.812;4.422;2022-11-30T11:12:05;-10.20;99.90
14485;DHT22;7328;50.812;4.422;2022-11-30T11:14:34;-10.10;99.90
14485;DHT22;7328;50.812;4.422;2022-11-30T11:17:08;-8.60;99.90
14485;DHT22;7328;50.812;4.422;2022-11-30T11:19:47;-8.50;99.90
14485;DHT22;7328;50.812;4.422;2022-11-30T11:24:45;-11.20;99.90
14485;DHT22;7328;50.812;4.422;2022-11-30T11:27:38;-9.80;99.90
14485;DHT22;7328;50.812;4.422;2022-11-30T11:30:10;-7.60;99.90
14485;DHT22;7328;50.812;4.422;2022-11-30T11:32:37;-7.90;99.90
14485;DHT22;7328;50.812;4.422;2022-11-30T11:35:03;-7.40;99.90
14485;DHT22;7328;50.812;4.422;2022-11-30T11:37:51;-7.60;99.90
14485;DHT22;7328;50.812;4.422;2022-11-30T11:40:17;-8.40;99.90
14485;DHT22;7328;50.812;4.422;2022-11-30T11:42:53;-7.90;99.90
14485;DHT22;7328;50.812;4.422;2022-11-30T11:45:21;-7.50;99.90
14485;DHT22;7328;50.812;4.422;2022-11-30T11:50:32;-7.70;99.90
14485;DHT22;7328;50.812;4.422;2022-11-30T11:53:23;-7.90;99.90
14485;DHT22;7328;50.812;4.422;2022-11-30T11:56:06;-7.80;99.90
14485;DHT22;7328;50.812;4.422;2022-11-30T11:59:03;-7.50;99.90
14485;DHT22;7328;50.812;4.422;2022-11-30T12:07:43;-9.30;99.90
14485;DHT22;7328;50.812;4.422;2022-11-30T12:12:42;-10.60;99.90
14485;DHT22;7328;50.812;4.422;2022-11-30T12:15:11;-10.90;99.90
14485;DHT22;7328;50.812;4.422;2022-11-30T12:20:22;-11.20;99.90
14485;DHT22;7328;50.812;4.422;2022-11-30T12:23:01;-9.70;99.90
14485;DHT22;7328;50.812;4.422;2022-11-30T12:25:43;-9.60;99.90
14485;DHT22;7328;50.812;4.422;2022-11-30T12:31:13;-7.80;99.90
14485;DHT22;7328;50.812;4.422;2022-11-30T12:34:08;-9.00;99.90
14485;DHT22;7328;50.812;4.422;2022-11-30T12:42:45;-10.70;99.90
14485;DHT22;7328;50.812;4.422;2022-11-30T12:54:00;-9.80;99.90
14485;DHT22;7328;50.812;4.422;2022-11-30T12:59:25;-10.70;99.90
14485;DHT22;7328;50.812;4.422;2022-11-30T13:04:39;-10.00;99.90
14485;DHT22;7328;50.812;4.422;2022-11-30T13:12:38;-8.20;99.90
14485;DHT22;7328;50.812;4.422;2022-11-30T13:15:13;-7.80;99.90
14485;DHT22;7328;50.812;4.422;2022-11-30T13:17:40;-7.20;99.90
14485;DHT22;7328;50.812;4.422;2022-11-30T13:25:17;-7.80;99.90
14485;DHT22;7328;50.812;4.422;2022-11-30T13:27:51;-8.20;99.90
14485;DHT22;7328;50.812;4.422;2022-11-30T13:30:52;-10.80;99.90
14485;DHT22;7328;50.812;4.422;2022-11-30T13:33:47;-10.20;99.90
14485;DHT22;7328;50.812;4.422;2022-11-30T13:36:28;-10.30;99.90
14485;DHT22;7328;50.812;4.422;2022-11-30T13:41:43;-9.60;99.90
14485;DHT22;7328;50.812;4.422;2022-11-30T13:46:55;-9.30;99.90
14485;DHT22;7328;50.812;4.422;2022-11-30T13:49:23;-9.00;99.90
14485;DHT22;7328;50.812;4.422;2022-11-30T13:51:52;-9.00;99.90
14485;DHT22;7328;50.812;4.422;2022-11-30T14:03:40;-9.20;99.90
14485;DHT22;7328;50.812;4.422;2022-11-30T14:05:48;-8.70;99.90
14485;DHT22;7328;50.812;4.422;2022-11-30T14:10:53;-9.10;99.90
14485;DHT22;7328;50.812;4.422;2022-11-30T14:15:52;-9.70;99.90
14485;DHT22;7328;50.812;4.422;2022-11-30T14:18:26;-8.40;99.90
14485;DHT22;7328;50.812;4.422;2022-11-30T14:21:00;-8.30;99.90
14485;DHT22;7328;50.812;4.422;2022-11-30T14:26:09;-8.10;99.90
14485;DHT22;7328;50.812;4.422;2022-11-30T14:28:42;-5.90;99.90
14485;DHT22;7328;50.812;4.422;2022-11-30T14:31:16;-7.60;99.90
14485;DHT22;7328;50.812;4.422;2022-11-30T14:34:13;-7.70;99.90
14485;DHT22;7328;50.812;4.422;2022-11-30T14:36:50;-7.20;99.90
14485;DHT22;7328;50.812;4.422;2022-11-30T14:39:32;-7.90;99.90
14485;DHT22;7328;50.812;4.422;2022-11-30T14:41:59;-7.60;99.90
14485;DHT22;7328;50.812;4.422;2022-11-30T14:44:26;-7.40;99.90
14485;DHT22;7328;50.812;4.422;2022-11-30T14:46:52;-8.10;99.90
14485;DHT22;7328;50.812;4.422;2022-11-30T14:49:21;-7.80;99.90
14485;DHT22;7328;50.812;4.422;2022-11-30T14:52:01;-7.20;99.90
14485;DHT22;7328;50.812;4.422;2022-11-30T14:55:03;-7.60;99.90
14485;DHT22;7328;50.812;4.422;2022-11-30T14:57:42;-7.20;99.90
14485;DHT22;7328;50.812;4.422;2022-11-30T15:00:17;-7.40;99.90
14485;DHT22;7328;50.812;4.422;2022-11-30T15:02:44;-8.90;99.90
14485;DHT22;7328;50.812;4.422;2022-11-30T15:05:16;-9.40;99.90
14485;DHT22;7328;50.812;4.422;2022-11-30T15:07:44;-8.90;99.90
14485;DHT22;7328;50.812;4.422;2022-11-30T15:10:13;-9.40;99.90
14485;DHT22;7328;50.812;4.422;2022-11-30T15:12:41;-8.70;99.90
14485;DHT22;7328;50.812;4.422;2022-11-30T15:20:19;-8.40;99.90
14485;DHT22;7328;50.812;4.422;2022-11-30T15:22:45;-9.00;99.90
14485;DHT22;7328;50.812;4.422;2022-11-30T15:25:11;-7.90;99.90
14485;DHT22;7328;50.812;4.422;2022-11-30T15:27:37;-7.90;99.90
14485;DHT22;7328;50.812;4.422;2022-11-30T15:30:04;-6.40;99.90
14485;DHT22;7328;50.812;4.422;2022-11-30T15:32:30;-8.40;99.90
14485;DHT22;7328;50.812;4.422;2022-11-30T15:34:57;-7.50;99.90
14485;DHT22;7328;50.812;4.422;2022-11-30T15:37:38;-7.50;99.90
14485;DHT22;7328;50.812;4.422;2022-11-30T15:40:07;-8.00;99.90
14485;DHT22;7328;50.812;4.422;2022-11-30T15:42:35;-7.30;99.90
14485;DHT22;7328;50.812;4.422;2022-11-30T15:45:29;-8.60;99.90
14485;DHT22;7328;50.812;4.422;2022-11-30T15:47:57;-8.00;99.90
14485;DHT22;7328;50.812;4.422;2022-11-30T15:53:19;-8.80;99.90
14485;DHT22;7328;50.812;4.422;2022-11-30T15:55:50;-9.60;99.90
14485;DHT22;7328;50.812;4.422;2022-11-30T15:58:29;-9.50;99.90
14485;DHT22;7328;50.812;4.422;2022-11-30T16:01:12;-7.80;99.90
14485;DHT22;7328;50.812;4.422;2022-11-30T16:04:02;-7.70;99.90
14485;DHT22;7328;50.812;4.422;2022-11-30T16:09:47;-8.00;99.90
14485;DHT22;7328;50.812;4.422;2022-11-30T16:11:52;-7.90;99.90
14485;DHT22;7328;50.812;4.422;2022-11-30T16:14:18;-8.30;99.90
14485;DHT22;7328;50.812;4.422;2022-11-30T16:16:45;-7.60;99.90
14485;DHT22;7328;50.812;4.422;2022-11-30T16:19:11;-8.00;99.90
14485;DHT22;7328;50.812;4.422;2022-11-30T16:21:37;-8.60;99.90
14485;DHT22;7328;50.812;4.422;2022-11-30T16:24:03;-8.40;99.90
14485;DHT22;7328;50.812;4.422;2022-11-30T16:26:29;-9.00;99.90
14485;DHT22;7328;50.812;4.422;2022-11-30T16:28:55;-8.80;99.90
14485;DHT22;7328;50.812;4.422;2022-11-30T16:31:22;-8.60;99.90
14485;DHT22;7328;50.812;4.422;2022-11-30T16:33:48;-9.40;99.90
14485;DHT22;7328;50.812;4.422;2022-11-30T16:36:19;-8.50;99.90
14485;DHT22;7328;50.812;4.422;2022-11-30T16:38:49;-8.60;99.90
14485;DHT22;7328;50.812;4.422;2022-11-30T16:43:47;-8.60;99.90
14485;DHT22;7328;50.812;4.422;2022-11-30T16:46:22;-8.10;99.90
14485;DHT22;7328;50.812;4.422;2022-11-30T16:48:49;-9.00;99.90
14485;DHT22;7328;50.812;4.422;2022-11-30T16:53:46;-9.00;99.90
14485;DHT22;7328;50.812;4.422;2022-11-30T16:56:13;-9.10;99.90
14485;DHT22;7328;50.812;4.422;2022-11-30T16:58:40;-8.30;99.90
14485;DHT22;7328;50.812;4.422;2022-11-30T17:01:14;-9.20;99.90
14485;DHT22;7328;50.812;4.422;2022-11-30T17:03:42;-9.50;99.90
14485;DHT22;7328;50.812;4.422;2022-11-30T17:06:14;-8.50;99.90
14485;DHT22;7328;50.812;4.422;2022-11-30T17:08:40;-7.70;99.90
14485;DHT22;7328;50.812;4.422;2022-11-30T17:11:21;-7.40;99.90
14485;DHT22;7328;50.812;4.422;2022-11-30T17:13:48;-6.20;99.90
14485;DHT22;7328;50.812;4.422;2022-11-30T17:16:13;-5.40;99.90
14485;DHT22;7328;50.812;4.422;2022-11-30T17:18:39;-7.40;99.90
14485;DHT22;7328;50.812;4.422;2022-11-30T17:21:05;-6.80;99.90
14485;DHT22;7328;50.812;4.422;2022-11-30T17:23:35;-7.60;99.90
14485;DHT22;7328;50.812;4.422;2022-11-30T17:26:00;-7.70;99.90
14485;DHT22;7328;50.812;4.422;2022-11-30T17:28:26;-6.40;99.90
14485;DHT22;7328;50.812;4.422;2022-11-30T17:30:52;-7.10;99.90
14485;DHT22;7328;50.812;4.422;2022-11-30T17:33:17;-8.30;99.90
14485;DHT22;7328;50.812;4.422;2022-11-30T17:35:43;-9.10;99.90
14485;DHT22;7328;50.812;4.422;2022-11-30T17:38:09;-8.10;99.90
14485;DHT22;7328;50.812;4.422;2022-11-30T17:40:35;-9.40;99.90
14485;DHT22;7328;50.812;4.422;2022-11-30T17:43:03;-9.20;99.90
14485;DHT22;7328;50.812;4.422;2022-11-30T17:45:29;-10.00;99.90
14485;DHT22;7328;50.812;4.422;2022-11-30T17:47:54;-9.50;99.90
14485;DHT22;7328;50.812;4.422;2022-11-30T17:50:20;-9.60;99.90
14485;DHT22;7328;50.812;4.422;2022-11-30T17:52:48;-9.40;99.90
14485;DHT22;7328;50.812;4.422;2022-11-30T17:55:14;-9.70;99.90
14485;DHT22;7328;50.812;4.422;2022-11-30T17:57:40;-9.20;99.90
14485;DHT22;7328;50.812;4.422;2022-11-30T18:00:06;-9.10;99.90
14485;DHT22;7328;50.812;4.422;2022-11-30T18:02:32;-8.80;99.90
14485;DHT22;7328;50.812;4.422;2022-11-30T18:04:58;-8.80;99.90
14485;DHT22;7328;50.812;4.422;2022-11-30T18:07:24;-8.20;99.90
14485;DHT22;7328;50.812;4.422;2022-11-30T18:09:49;-7.10;99.90
14485;DHT22;7328;50.812;4.422;2022-11-30T18:12:15;-8.90;99.90
14485;DHT22;7328;50.812;4.422;2022-11-30T18:14:41;-9.70;99.90